Dutch Harbor, AK

4:39 PM AKDT on October 20, 2014 (GMT -0800)
Dutch Harbor | Change Station
CLOSE
Current Station
Airport
Location: Dutch Harbor,
Elevation: 13 ft
Nearby Weather Stations

Elev 13 ft 53.90 °N, 166.54 °W | Updated 29 minutes ago

Overcast
Overcast
37 °F
Feels Like 27 °F
N
20
Wind Variable Wind from WNW
Gusts 33 mph

Today
High -- | Low -- °F
--% Chance of Precip.
Yesterday
High -- | Low -- °F
Precip. -- in
9:44 AM 7:59 PM
Waning Crescent, 8% visible
Pressure 29.42 in
Visibility 7.0 miles
Clouds Scattered Clouds 1200 ft
Mostly Cloudy 2200 ft
Overcast 3300 ft
Windchill 27 °F
Dew Point 30 °F
Humidity 75%
Rainfall 0.00 in
Snow Depth Not available.
UV 1 out of 12
Pollen Not available.
Air Quality Not available.
Flu Activity Sporadic
SPECI PADU 210010Z 29017G29KT 7SM SCT012 BKN022 OVC033 03/M01 A2942 RMK AO2 PK WND 31029/0004 SNB2359E10 MH PNO $

More Conditions Fewer Conditions

Pressure 29.42 in
Visibility 7.0 miles
Clouds Scattered Clouds 1200 ft
Mostly Cloudy 2200 ft
Overcast 3300 ft
Windchill 27 °F
Dew Point 30 °F
Humidity 75%
Rainfall 0.00 in
Snow Depth Not available.
UV 1 out of 12
Pollen Not available.
Air Quality Not available.
Flu Activity Sporadic
SPECI PADU 210010Z 29017G29KT 7SM SCT012 BKN022 OVC033 03/M01 A2942 RMK AO2 PK WND 31029/0004 SNB2359E10 MH PNO $

More Conditions Fewer Conditions

10-Day Weather Forecast

Almanac

Astronomy

Oct. 20, 2014 Rise Set
Actual Time 9:44 AM AKDT 7:59 PM AKDT
Civil Twilight 9:09 AM AKDT 8:35 PM AKDT
Nautical Twilight 8:28 AM AKDT 9:15 PM AKDT
Astronomical Twilight 7:47 AM AKDT 9:56 PM AKDT
Moon 6:20 AM AKDT (10/20) 6:49 PM AKDT (10/20)
Length of Visible Light 11h 26m
Length of Day
10h 14m
Tomorrow will be 4m 5s shorter.
Waning Crescent, 8% of the Moon is Illuminated
Today
Waning Crescent
Oct 23
New
Oct 30
First Quarter
Nov 6
Full
Nov 14
Last Quarter

Today's Extremes

State Highs State Lows

Community

WunderPhotos

Upload Photos

1,763,566 photos uploaded!

Nearby

Snow Depth

Station Depth Elevation
Port Graham 0 in 300 ft
Mcneil Canyon 1 in 1320 ft
Rocky Point 2 in 500 ft
Cooper Lake 0 in 1200 ft
Grouse Creek Divide 0 in 700 ft

Earthquake Activity

City Distance Mag. Time & Date
No recent earthquake activity has been reported nearby.
Minimum magnitude displayed is 2.5.

Coastal Water Temperatures

Place Temperature
No Stations Reporting

Nearby Weather Stations